Munhall, PA

8:26 PM EDT on September 19, 2014 (GMT -0400)
Lower Gates Manor | Change Station
CLOSE
Current Station
Personal Weather Station
Location: Munhall, PA
Elevation: 1050 ft
Nearby Weather Stations

Elev 1050 ft 40.39 °N, 79.92 °W | Updated 13 minutes ago

Scattered Clouds
Scattered Clouds
65.7 °F
Feels Like 65.7 °F
N
1.1
Wind Variable Wind from ENE

Today
High -- | Low -- °F
--% Chance of Precip.
Yesterday
High -- | Low -- °F
Precip. -- in
7:04 AM 7:21 PM
Waning Crescent, 16% visible
Pressure 30.18 in
Visibility 10.0 miles
Clouds Few 3900 ft
Scattered Clouds 5000 ft
Dew Point 56 °F
Humidity 72%
Rainfall 0.00 in
Snow Depth Not available.
UV 0 out of 12
Pollen 3.80 out of 12
Ozone Good
PM2.5 Moderate
Flu Activity Not available.
METAR KAGC 192353Z AUTO 13009KT 10SM FEW039 SCT050 19/11 A3016 RMK AO2 SLP218 T01890111 10233 20189 53004 TSNO

More Conditions Fewer Conditions

Pressure 30.18 in
Visibility 10.0 miles
Clouds Few 3900 ft
Scattered Clouds 5000 ft
Dew Point 56 °F
Humidity 72%
Rainfall 0.00 in
Snow Depth Not available.
UV 0 out of 12
Pollen 3.80 out of 12
Ozone Good
PM2.5 Moderate
Flu Activity Not available.
METAR KAGC 192353Z AUTO 13009KT 10SM FEW039 SCT050 19/11 A3016 RMK AO2 SLP218 T01890111 10233 20189 53004 TSNO

More Conditions Fewer Conditions

10-Day Weather Forecast

Almanac

Astronomy

Sep. 19, 2014 Rise Set
Actual Time 7:04 AM EDT 7:21 PM EDT
Civil Twilight 6:37 AM EDT 7:49 PM EDT
Nautical Twilight 6:05 AM EDT 8:20 PM EDT
Astronomical Twilight 5:32 AM EDT 8:53 PM EDT
Moon 2:47 AM EDT (9/19) 4:50 PM EDT (9/19)
Length of Visible Light 13h 11m
Length of Day
12h 17m
Tomorrow will be 2m 39s shorter.
Waning Crescent, 16% of the Moon is Illuminated
Today
Waning Crescent
Sep 24
New
Oct 1
First Quarter
Oct 8
Full
Oct 15
Last Quarter

Today's Extremes

State Highs State Lows

Community

WunderPhotos

Upload Photos

1,754,744 photos uploaded!

WunderBlogs® & News

Nearby

Air Quality

  Air Quality AQ Index Pollutant
Yesterday Moderate
PM2.5
Yesterday Good
OZONE
Current Moderate
PM2.5
Current Good
OZONE
Friday Moderate
PM2.5
Saturday Moderate
PM2.5
Sunday Moderate
PM2.5
Monday Good
PM2.5
Tuesday Good
PM2.5

Snow Depth

Station Depth Elevation
No new snow has been reported.

Earthquake Activity

City Distance Mag. Time & Date
No recent earthquake activity has been reported nearby.
Minimum magnitude displayed is 2.5.

Coastal Water Temperatures

Place Temperature
No Stations Reporting

Nearby Weather Stations